Time;durP1;ratioP1;P1;durP2;ratioP2;P2;SDS_P1;SDS_P2;PMS_P1;PMS_P2;Temp;Humidity;BMP_temperature;BMP_pressure;BME280_temperature;BME280_humidity;BME280_pressure;Samples;Min_cycle;Max_cycle;Signal;HPM_P1;HPM_P2
2023/01/31 04:02:23;;;;;;;;;;;2.90;99.90;;;;;;5167209;23;20145;-71
2023/01/31 04:04:54;;;;;;;;;;;3.00;99.90;;;;;;4985208;28;19949;-74
2023/01/31 04:07:21;;;;;;;;;;;3.00;99.90;;;;;;4987033;28;19981;-73
2023/01/31 04:09:48;;;;;;;;;;;3.10;99.90;;;;;;4973489;28;19935;-72
2023/01/31 04:12:14;;;;;;;;;;;3.20;99.90;;;;;;4957473;28;19973;-71
2023/01/31 04:14:41;;;;;;;;;;;3.20;99.90;;;;;;4959041;28;20024;-71
2023/01/31 04:17:08;;;;;;;;;;;3.20;99.90;;;;;;4960835;28;20017;-70
2023/01/31 04:19:36;;;;;;;;;;;3.20;99.90;;;;;;4948749;28;19926;-71
2023/01/31 04:22:03;;;;;;;;;;;3.20;99.90;;;;;;4951939;28;19962;-71
2023/01/31 04:24:29;;;;;;;;;;;3.30;99.90;;;;;;4958181;28;19926;-71
2023/01/31 04:26:56;;;;;;;;;;;3.30;99.90;;;;;;4965362;28;19926;-72
2023/01/31 04:29:23;;;;;;;;;;;3.30;99.90;;;;;;4959274;28;19931;-70
2023/01/31 04:31:49;;;;;;;;;;;3.30;99.90;;;;;;4962927;28;19926;-71
2023/01/31 04:34:16;;;;;;;;;;;3.30;99.90;;;;;;4970148;28;19930;-72
2023/01/31 04:36:44;;;;;;;;;;;3.40;99.90;;;;;;4953103;28;19927;-72
2023/01/31 04:39:12;;;;;;;;;;;3.30;99.90;;;;;;4969648;28;19942;-71
2023/01/31 04:41:39;;;;;;;;;;;3.30;99.90;;;;;;4969463;28;19981;-72
2023/01/31 04:44:06;;;;;;;;;;;3.30;99.90;;;;;;4960814;28;19926;-70
2023/01/31 04:46:32;;;;;;;;;;;3.30;99.90;;;;;;4975590;28;19930;-71
2023/01/31 04:48:59;;;;;;;;;;;3.30;99.90;;;;;;4964538;28;19926;-72
2023/01/31 04:51:26;;;;;;;;;;;3.40;99.90;;;;;;4975510;28;19927;-72
2023/01/31 04:53:54;;;;;;;;;;;3.40;99.90;;;;;;4975933;28;19956;-72
2023/01/31 04:56:22;;;;;;;;;;;3.40;99.90;;;;;;4968877;28;19937;-71
2023/01/31 04:58:48;;;;;;;;;;;3.40;99.90;;;;;;4961963;28;19937;-72
2023/01/31 05:01:15;;;;;;;;;;;3.40;99.90;;;;;;4958473;28;19930;-71
2023/01/31 05:03:42;;;;;;;;;;;3.40;99.90;;;;;;4972787;28;19926;-72
2023/01/31 05:06:09;;;;;;;;;;;3.40;99.90;;;;;;4970827;28;19927;-71
2023/01/31 05:08:35;;;;;;;;;;;3.40;99.90;;;;;;4955853;28;19950;-70
2023/01/31 05:11:04;;;;;;;;;;;3.50;99.90;;;;;;4957961;28;19926;-72
2023/01/31 05:13:31;;;;;;;;;;;3.60;99.90;;;;;;4960509;28;19930;-71
2023/01/31 05:15:58;;;;;;;;;;;;;;;;;;4957421;28;20404;-71
2023/01/31 05:18:25;;;;;;;;;;;;;;;;;;4963954;28;19931;-72
2023/01/31 05:20:52;;;;;;;;;;;;;;;;;;4975571;28;20028;-72
2023/01/31 05:23:19;;;;;;;;;;;;;;;;;;4976654;28;20393;-72
2023/01/31 05:25:46;;;;;;;;;;;;;;;;;;4970658;28;19927;-71
2023/01/31 05:28:14;;;;;;;;;;;4.20;99.90;;;;;;4959841;28;19953;-72
2023/01/31 05:30:41;;;;;;;;;;;3.70;99.90;;;;;;4966231;28;19926;-71
2023/01/31 05:33:08;;;;;;;;;;;3.70;99.90;;;;;;4965014;28;19981;-70
2023/01/31 05:35:36;;;;;;;;;;;3.60;99.90;;;;;;4962135;28;19926;-72
2023/01/31 05:38:03;;;;;;;;;;;3.70;99.90;;;;;;4957557;28;19927;-71
2023/01/31 05:40:29;;;;;;;;;;;3.60;99.90;;;;;;4963064;28;19926;-73
2023/01/31 05:42:56;;;;;;;;;;;;;;;;;;4973653;28;19930;-71
2023/01/31 05:45:24;;;;;;;;;;;;;;;;;;4958531;28;19936;-71
2023/01/31 05:47:52;;;;;;;;;;;3.60;99.90;;;;;;4954852;28;19926;-71
2023/01/31 05:50:19;;;;;;;;;;;3.50;99.90;;;;;;4957838;28;19926;-71
2023/01/31 05:52:49;;;;;;;;;;;3.60;99.90;;;;;;4961122;28;19942;-71
2023/01/31 05:55:16;;;;;;;;;;;3.60;99.90;;;;;;4956068;28;20354;-70
2023/01/31 05:57:43;;;;;;;;;;;3.70;99.90;;;;;;4978851;28;19935;-71
2023/01/31 06:00:10;;;;;;;;;;;3.70;99.90;;;;;;4952867;28;19931;-71
2023/01/31 06:02:40;;;;;;;;;;;3.70;99.90;;;;;;4948486;28;19977;-72
2023/01/31 06:05:09;;;;;;;;;;;3.70;99.90;;;;;;4951648;28;19940;-72
2023/01/31 06:07:36;;;;;;;;;;;3.70;99.90;;;;;;4970827;28;19985;-71
2023/01/31 06:10:03;;;;;;;;;;;3.70;99.90;;;;;;4952936;28;19974;-72
2023/01/31 06:12:30;;;;;;;;;;;3.70;99.90;;;;;;4955046;28;20385;-72
2023/01/31 06:14:56;;;;;;;;;;;3.60;99.90;;;;;;4957011;28;19926;-70
2023/01/31 06:17:23;;;;;;;;;;;3.60;99.90;;;;;;4955218;28;19933;-71
2023/01/31 06:19:50;;;;;;;;;;;3.60;99.90;;;;;;4962512;28;19927;-71
2023/01/31 06:22:18;;;;;;;;;;;3.60;99.90;;;;;;4970335;28;19926;-71
2023/01/31 06:24:45;;;;;;;;;;;3.70;99.90;;;;;;4962689;28;19957;-71
2023/01/31 06:27:12;;;;;;;;;;;3.70;99.90;;;;;;4953501;28;19931;-71
2023/01/31 06:29:39;;;;;;;;;;;3.70;99.90;;;;;;4955297;28;20053;-72
2023/01/31 06:32:06;;;;;;;;;;;3.70;99.90;;;;;;4963993;28;19977;-71
2023/01/31 06:34:33;;;;;;;;;;;3.70;99.90;;;;;;4953503;28;19937;-72
2023/01/31 06:37:00;;;;;;;;;;;3.80;99.90;;;;;;4969908;28;19954;-72
2023/01/31 06:39:28;;;;;;;;;;;3.80;99.90;;;;;;4962204;28;20289;-71
2023/01/31 06:41:54;;;;;;;;;;;3.80;99.90;;;;;;4955822;28;19930;-70
2023/01/31 06:44:21;;;;;;;;;;;3.80;99.90;;;;;;4957285;28;19926;-72
2023/01/31 06:46:48;;;;;;;;;;;3.90;99.90;;;;;;4960744;28;19937;-72
2023/01/31 06:49:15;;;;;;;;;;;3.90;99.90;;;;;;4956252;28;19927;-72
2023/01/31 06:51:42;;;;;;;;;;;3.90;99.90;;;;;;4946778;28;19942;-72
2023/01/31 06:54:08;;;;;;;;;;;3.90;99.90;;;;;;4964129;28;19926;-72
2023/01/31 06:56:37;;;;;;;;;;;3.80;99.90;;;;;;4964569;28;19926;-71
2023/01/31 06:59:04;;;;;;;;;;;3.80;99.90;;;;;;4959490;28;19926;-72
2023/01/31 07:01:30;;;;;;;;;;;3.70;99.90;;;;;;4950313;28;19934;-72
2023/01/31 07:03:57;;;;;;;;;;;3.80;99.90;;;;;;4959418;28;19930;-71
2023/01/31 07:06:24;;;;;;;;;;;3.80;99.90;;;;;;4946802;29;19997;-72
2023/01/31 07:08:51;;;;;;;;;;;3.80;99.90;;;;;;4951841;28;19927;-71
2023/01/31 07:11:18;;;;;;;;;;;3.80;99.90;;;;;;4953448;28;19934;-71
2023/01/31 07:13:46;;;;;;;;;;;3.90;99.90;;;;;;4954274;28;19931;-72
2023/01/31 07:16:15;;;;;;;;;;;3.90;99.90;;;;;;4957847;28;19927;-72
2023/01/31 07:18:42;;;;;;;;;;;3.90;99.90;;;;;;4960994;28;20396;-72
2023/01/31 07:21:09;;;;;;;;;;;3.90;99.90;;;;;;4957417;28;19926;-71
2023/01/31 07:23:36;;;;;;;;;;;4.00;99.90;;;;;;4957852;28;19934;-72
2023/01/31 07:26:03;;;;;;;;;;;4.00;99.90;;;;;;4953260;28;20373;-71
2023/01/31 07:28:30;;;;;;;;;;;4.10;99.90;;;;;;4973585;28;19933;-72
2023/01/31 07:31:05;;;;;;;;;;;4.20;99.90;;;;;;4960721;28;19926;-71
2023/01/31 07:33:32;;;;;;;;;;;4.20;99.90;;;;;;4960366;28;19965;-71
2023/01/31 07:36:00;;;;;;;;;;;4.20;99.90;;;;;;4953954;28;19950;-71
2023/01/31 07:38:27;;;;;;;;;;;4.30;99.90;;;;;;4956498;28;19926;-72
2023/01/31 07:40:54;;;;;;;;;;;4.30;99.90;;;;;;4955875;28;19933;-71
2023/01/31 07:43:21;;;;;;;;;;;4.40;99.90;;;;;;4954141;28;19930;-72
2023/01/31 07:45:48;;;;;;;;;;;4.40;99.90;;;;;;4957089;28;19926;-72
2023/01/31 07:48:22;;;;;;;;;;;4.50;99.90;;;;;;4950713;28;19930;-72
2023/01/31 07:50:49;;;;;;;;;;;4.50;99.90;;;;;;4960229;28;20301;-71
2023/01/31 07:53:16;;;;;;;;;;;4.60;99.90;;;;;;4963975;28;20393;-71
2023/01/31 07:55:46;;;;;;;;;;;4.60;99.90;;;;;;4950114;28;19930;-71
2023/01/31 07:58:13;;;;;;;;;;;4.60;99.90;;;;;;4956283;28;19976;-72
2023/01/31 08:03:32;;;;;;;;;;;4.70;99.90;;;;;;4959282;28;20313;-71
2023/01/31 08:05:59;;;;;;;;;;;4.80;99.90;;;;;;4949377;29;20373;-71
2023/01/31 08:08:26;;;;;;;;;;;4.80;99.90;;;;;;4974160;28;20436;-72
2023/01/31 08:10:52;;;;;;;;;;;4.80;99.90;;;;;;4960551;28;20365;-73
2023/01/31 08:13:21;;;;;;;;;;;4.90;99.90;;;;;;4959873;28;19930;-71
2023/01/31 08:15:48;;;;;;;;;;;4.90;99.90;;;;;;4971103;28;19926;-72
2023/01/31 08:18:15;;;;;;;;;;;4.90;99.90;;;;;;4951850;28;20009;-71
2023/01/31 08:20:43;;;;;;;;;;;4.90;99.90;;;;;;4950904;28;19978;-71
2023/01/31 08:23:10;;;;;;;;;;;5.00;99.90;;;;;;4957345;28;20410;-71
2023/01/31 08:25:37;;;;;;;;;;;5.00;99.90;;;;;;4957847;28;19926;-71
2023/01/31 08:28:04;;;;;;;;;;;4.90;99.90;;;;;;4954053;28;20312;-71
2023/01/31 08:30:31;;;;;;;;;;;5.00;99.90;;;;;;4982043;28;19927;-71
2023/01/31 08:32:57;;;;;;;;;;;5.00;99.90;;;;;;4965858;28;19926;-71
2023/01/31 08:35:25;;;;;;;;;;;5.10;99.90;;;;;;4961947;28;20452;-71
2023/01/31 08:37:53;;;;;;;;;;;5.10;99.90;;;;;;4953714;28;19926;-71
2023/01/31 08:40:20;;;;;;;;;;;5.10;99.90;;;;;;4953063;28;19926;-72
2023/01/31 08:42:53;;;;;;;;;;;5.10;99.90;;;;;;4960890;28;19926;-71
2023/01/31 08:45:20;;;;;;;;;;;5.10;99.90;;;;;;4964048;28;20420;-71
2023/01/31 08:47:47;;;;;;;;;;;5.10;99.90;;;;;;4966593;28;19926;-71
2023/01/31 08:50:13;;;;;;;;;;;5.10;99.90;;;;;;4966176;28;19934;-71
2023/01/31 08:52:40;;;;;;;;;;;5.20;99.90;;;;;;4954776;28;19927;-72
2023/01/31 08:55:12;;;;;;;;;;;5.20;99.90;;;;;;4953625;28;19935;-72
2023/01/31 08:57:39;;;;;;;;;;;5.40;99.90;;;;;;4962988;28;19926;-73
2023/01/31 09:00:06;;;;;;;;;;;5.40;99.90;;;;;;4963149;28;19978;-73
2023/01/31 09:02:33;;;;;;;;;;;5.30;99.90;;;;;;4952880;28;19927;-75
2023/01/31 09:05:00;;;;;;;;;;;5.40;99.90;;;;;;4973334;28;19926;-71
2023/01/31 09:07:27;;;;;;;;;;;5.40;99.90;;;;;;4948668;29;19927;-71
2023/01/31 09:09:53;;;;;;;;;;;5.40;99.90;;;;;;4960512;28;19996;-70
2023/01/31 09:12:21;;;;;;;;;;;5.40;99.90;;;;;;4950079;28;19930;-70
2023/01/31 09:14:50;;;;;;;;;;;5.40;99.90;;;;;;4981737;28;19934;-71
2023/01/31 09:17:17;;;;;;;;;;;5.40;99.90;;;;;;4970483;28;19934;-69
2023/01/31 09:19:43;;;;;;;;;;;5.40;99.90;;;;;;4970880;28;19926;-71
2023/01/31 09:22:10;;;;;;;;;;;5.40;99.90;;;;;;4964084;28;20435;-71
2023/01/31 09:24:37;;;;;;;;;;;5.40;99.90;;;;;;4946404;28;19926;-71
2023/01/31 09:27:04;;;;;;;;;;;5.50;99.90;;;;;;4968207;28;19930;-71
2023/01/31 09:29:32;;;;;;;;;;;5.60;99.90;;;;;;4964497;28;19926;-72
2023/01/31 09:31:59;;;;;;;;;;;5.70;99.90;;;;;;4965166;28;19927;-70
2023/01/31 09:34:26;;;;;;;;;;;5.70;99.90;;;;;;4972557;28;19926;-71
2023/01/31 09:36:54;;;;;;;;;;;5.80;99.90;;;;;;4983915;28;19926;-71
2023/01/31 09:39:21;;;;;;;;;;;5.70;99.90;;;;;;4962659;28;19958;-71
2023/01/31 09:41:50;;;;;;;;;;;5.70;99.90;;;;;;4962846;28;19927;-70
2023/01/31 09:44:19;;;;;;;;;;;5.70;99.90;;;;;;4964959;28;19926;-71
2023/01/31 09:46:52;;;;;;;;;;;5.70;99.90;;;;;;4982870;28;19926;-70
2023/01/31 09:49:21;;;;;;;;;;;5.80;99.90;;;;;;4969714;28;19938;-70
2023/01/31 09:51:51;;;;;;;;;;;5.80;99.90;;;;;;4968084;28;19977;-72
2023/01/31 09:54:20;;;;;;;;;;;5.90;99.90;;;;;;4962511;28;19934;-71
2023/01/31 09:56:51;;;;;;;;;;;5.80;99.90;;;;;;4959479;28;19962;-70
2023/01/31 09:59:20;;;;;;;;;;;5.90;99.90;;;;;;4968673;28;19930;-71
2023/01/31 10:01:54;;;;;;;;;;;5.90;99.90;;;;;;4950515;28;19927;-71
2023/01/31 10:04:32;;;;;;;;;;;6.00;99.90;;;;;;4962545;28;20422;-70
2023/01/31 10:07:03;;;;;;;;;;;6.10;99.90;;;;;;4954383;28;19938;-70
2023/01/31 10:09:33;;;;;;;;;;;6.10;99.90;;;;;;4971535;28;19974;-71
2023/01/31 10:12:03;;;;;;;;;;;6.20;99.90;;;;;;4975456;28;19942;-70
2023/01/31 10:14:33;;;;;;;;;;;6.20;99.90;;;;;;4984935;28;19927;-70
2023/01/31 10:17:05;;;;;;;;;;;6.10;99.90;;;;;;4961628;28;20378;-70
2023/01/31 10:19:34;;;;;;;;;;;6.10;99.90;;;;;;4960112;28;19931;-70
2023/01/31 10:22:05;;;;;;;;;;;6.10;99.90;;;;;;4977563;28;19926;-70
2023/01/31 10:24:33;;;;;;;;;;;6.00;99.90;;;;;;4961500;28;19977;-70
2023/01/31 10:27:03;;;;;;;;;;;6.10;99.90;;;;;;4961550;28;19961;-70
2023/01/31 10:29:33;;;;;;;;;;;6.10;99.90;;;;;;4962202;28;19993;-70
2023/01/31 10:32:03;;;;;;;;;;;6.20;99.90;;;;;;4965801;28;20021;-71
2023/01/31 10:34:33;;;;;;;;;;;6.20;99.90;;;;;;4977592;28;20401;-70
2023/01/31 10:37:02;;;;;;;;;;;6.30;99.90;;;;;;4965601;28;20362;-70
2023/01/31 10:39:31;;;;;;;;;;;6.20;99.90;;;;;;4965291;28;20436;-70
2023/01/31 10:42:03;;;;;;;;;;;6.20;99.90;;;;;;4967292;28;19926;-70
2023/01/31 10:44:34;;;;;;;;;;;6.20;99.90;;;;;;4967800;28;19931;-71
2023/01/31 10:47:03;;;;;;;;;;;6.20;99.90;;;;;;4967530;28;20393;-70
2023/01/31 10:49:30;;;;;;;;;;;6.20;99.90;;;;;;4966146;28;19926;-70
2023/01/31 10:52:05;;;;;;;;;;;6.20;99.90;;;;;;4963240;28;19933;-70
2023/01/31 10:54:38;;;;;;;;;;;6.20;99.90;;;;;;4950561;28;19974;-71
2023/01/31 10:57:05;;;;;;;;;;;6.50;99.90;;;;;;4963860;28;19937;-71
2023/01/31 10:59:34;;;;;;;;;;;6.50;99.90;;;;;;4954051;28;19927;-70
2023/01/31 11:02:01;;;;;;;;;;;6.60;99.90;;;;;;4962773;28;19927;-69
2023/01/31 11:04:31;;;;;;;;;;;6.50;99.90;;;;;;4974465;28;19933;-71
2023/01/31 11:06:59;;;;;;;;;;;6.60;99.90;;;;;;4959260;28;19974;-70
2023/01/31 11:09:27;;;;;;;;;;;6.70;99.90;;;;;;4955388;28;20286;-70
2023/01/31 11:11:55;;;;;;;;;;;6.90;99.90;;;;;;4952063;28;19933;-70
2023/01/31 11:14:22;;;;;;;;;;;7.00;99.90;;;;;;4962113;28;19930;-71
2023/01/31 11:16:50;;;;;;;;;;;7.30;99.90;;;;;;4953319;28;19926;-70
2023/01/31 11:19:19;;;;;;;;;;;7.60;99.90;;;;;;4956011;28;19935;-71
2023/01/31 11:21:50;;;;;;;;;;;7.50;99.90;;;;;;4966026;28;19926;-72
2023/01/31 11:24:20;;;;;;;;;;;7.70;99.90;;;;;;4956517;28;20034;-71
2023/01/31 11:26:49;;;;;;;;;;;8.40;99.90;;;;;;4985154;28;19933;-71
2023/01/31 11:29:17;;;;;;;;;;;10.50;99.90;;;;;;4961781;28;19926;-72
2023/01/31 11:31:46;;;;;;;;;;;10.60;99.90;;;;;;4961831;28;19981;-69
2023/01/31 11:34:20;;;;;;;;;;;11.00;99.90;;;;;;4976197;28;19942;-73
2023/01/31 11:36:48;;;;;;;;;;;9.40;99.90;;;;;;4982404;28;19941;-72
2023/01/31 11:39:26;;;;;;;;;;;8.20;99.90;;;;;;4977998;28;19953;-71
2023/01/31 11:41:52;;;;;;;;;;;7.30;99.90;;;;;;4981498;28;20396;-71
2023/01/31 11:44:20;;;;;;;;;;;7.20;99.90;;;;;;4979854;28;19960;-72
2023/01/31 11:46:49;;;;;;;;;;;7.20;99.90;;;;;;4963796;28;19934;-69
2023/01/31 11:49:24;;;;;;;;;;;7.00;99.90;;;;;;4963261;28;20344;-70
2023/01/31 11:51:52;;;;;;;;;;;7.10;99.90;;;;;;4968053;28;19933;-71
2023/01/31 11:54:21;;;;;;;;;;;7.00;99.90;;;;;;4965057;28;20409;-70
2023/01/31 11:56:49;;;;;;;;;;;6.70;99.90;;;;;;4968490;28;19930;-71
2023/01/31 11:59:18;;;;;;;;;;;6.50;99.90;;;;;;4965021;28;19930;-70
2023/01/31 12:01:46;;;;;;;;;;;6.70;99.90;;;;;;4984958;28;19933;-70
2023/01/31 12:04:15;;;;;;;;;;;6.70;99.90;;;;;;4964916;28;19926;-70
2023/01/31 12:06:54;;;;;;;;;;;6.70;99.90;;;;;;4976857;28;19930;-70
2023/01/31 12:09:23;;;;;;;;;;;6.70;99.90;;;;;;4980712;28;19966;-70
2023/01/31 12:11:51;;;;;;;;;;;6.70;99.90;;;;;;4980058;28;19932;-70
2023/01/31 12:14:19;;;;;;;;;;;6.60;99.90;;;;;;4955292;28;20460;-70
2023/01/31 12:16:47;;;;;;;;;;;6.60;99.90;;;;;;4980030;28;19930;-68
2023/01/31 12:19:21;;;;;;;;;;;6.60;99.90;;;;;;4962474;28;20036;-67
2023/01/31 12:21:48;;;;;;;;;;;;;;;;;;4965648;28;19926;-70
2023/01/31 12:24:15;;;;;;;;;;;;;;;;;;4961439;28;19927;-70
2023/01/31 12:26:42;;;;;;;;;;;;;;;;;;4958811;28;19927;-71
2023/01/31 12:29:09;;;;;;;;;;;;;;;;;;4976639;28;19927;-67
2023/01/31 12:31:37;;;;;;;;;;;;;;;;;;4958063;28;19937;-69
2023/01/31 12:34:04;;;;;;;;;;;;;;;;;;4985380;28;19977;-70
2023/01/31 12:36:31;;;;;;;;;;;;;;;;;;4964180;28;19976;-69
2023/01/31 12:38:58;;;;;;;;;;;;;;;;;;4982247;28;19933;-68
2023/01/31 12:41:31;;;;;;;;;;;6.50;99.90;;;;;;4955709;28;19931;-67
2023/01/31 12:43:58;;;;;;;;;;;;;;;;;;4962572;28;19938;-68
2023/01/31 12:46:29;;;;;;;;;;;6.60;99.90;;;;;;4981779;28;19930;-70
2023/01/31 12:49:21;;;;;;;;;;;6.70;99.90;;;;;;4954395;28;19962;-68
2023/01/31 12:51:58;;;;;;;;;;;6.70;99.90;;;;;;4955586;28;20401;-70
2023/01/31 12:54:39;;;;;;;;;;;6.70;99.90;;;;;;4967745;28;19953;-70
2023/01/31 12:57:13;;;;;;;;;;;6.70;99.90;;;;;;4970758;28;19984;-69
2023/01/31 12:59:46;;;;;;;;;;;6.70;99.90;;;;;;4955973;28;19958;-70
2023/01/31 13:02:18;;;;;;;;;;;6.70;99.90;;;;;;4966402;28;19977;-70
2023/01/31 13:04:48;;;;;;;;;;;6.70;99.90;;;;;;4956324;28;19958;-70
2023/01/31 13:07:17;;;;;;;;;;;6.70;99.90;;;;;;4955632;28;19926;-70
2023/01/31 13:09:46;;;;;;;;;;;6.80;99.90;;;;;;4964438;28;20013;-71
2023/01/31 13:12:15;;;;;;;;;;;6.90;99.90;;;;;;4944025;28;20009;-71
2023/01/31 13:14:43;;;;;;;;;;;6.90;99.90;;;;;;4955315;28;19926;-72
2023/01/31 13:17:12;;;;;;;;;;;6.90;99.90;;;;;;4957607;28;19926;-69
2023/01/31 13:19:41;;;;;;;;;;;6.90;99.90;;;;;;4957002;28;19987;-70
2023/01/31 13:22:11;;;;;;;;;;;6.90;99.90;;;;;;4971773;28;19927;-70
2023/01/31 13:24:40;;;;;;;;;;;6.90;99.90;;;;;;4956493;28;19930;-70
2023/01/31 13:27:10;;;;;;;;;;;6.90;99.90;;;;;;4965968;28;20304;-71
2023/01/31 13:29:40;;;;;;;;;;;6.90;99.90;;;;;;4978421;28;19929;-70
2023/01/31 13:32:10;;;;;;;;;;;7.00;99.90;;;;;;4973833;28;20444;-69
2023/01/31 13:34:39;;;;;;;;;;;6.90;99.90;;;;;;4961653;28;19931;-69
2023/01/31 13:37:09;;;;;;;;;;;6.90;99.90;;;;;;4962886;28;19934;-69
2023/01/31 13:39:36;;;;;;;;;;;;;;;;;;4982103;28;19977;-71
2023/01/31 13:42:03;;;;;;;;;;;6.90;99.90;;;;;;4977562;28;20361;-70
2023/01/31 13:44:30;;;;;;;;;;;7.00;99.90;;;;;;4964328;28;19926;-71
2023/01/31 13:47:00;;;;;;;;;;;6.90;99.90;;;;;;4966708;28;20401;-69
2023/01/31 13:49:29;;;;;;;;;;;6.90;99.90;;;;;;4956465;28;19930;-69
2023/01/31 13:51:57;;;;;;;;;;;6.90;99.90;;;;;;4982270;28;19926;-71
2023/01/31 13:54:26;;;;;;;;;;;6.90;99.90;;;;;;4954581;28;19935;-71
2023/01/31 13:56:54;;;;;;;;;;;6.90;99.90;;;;;;4965263;28;19926;-71
2023/01/31 13:59:21;;;;;;;;;;;;;;;;;;4977625;28;19926;-71
2023/01/31 14:01:49;;;;;;;;;;;6.90;99.90;;;;;;4963961;28;19980;-71
2023/01/31 14:04:25;;;;;;;;;;;6.90;99.90;;;;;;4966521;28;19934;-71
2023/01/31 14:06:56;;;;;;;;;;;6.80;99.90;;;;;;4958994;28;19926;-70
2023/01/31 14:09:24;;;;;;;;;;;6.80;99.90;;;;;;4986616;28;19933;-69
2023/01/31 14:11:51;;;;;;;;;;;6.60;99.90;;;;;;4957996;28;19930;-70
2023/01/31 14:14:38;;;;;;;;;;;6.50;99.90;;;;;;4963779;28;19931;-71
2023/01/31 14:17:05;;;;;;;;;;;6.50;99.90;;;;;;4959771;28;20382;-72
2023/01/31 14:19:54;;;;;;;;;;;6.50;99.90;;;;;;4970758;28;20016;-71
2023/01/31 14:22:22;;;;;;;;;;;6.60;99.90;;;;;;4956627;28;19926;-71
2023/01/31 14:24:55;;;;;;;;;;;6.50;99.90;;;;;;4962028;28;19934;-70
2023/01/31 14:27:23;;;;;;;;;;;6.50;99.90;;;;;;4977871;28;19961;-71
2023/01/31 14:29:52;;;;;;;;;;;6.40;99.90;;;;;;4978112;28;19927;-71
2023/01/31 14:32:26;;;;;;;;;;;6.50;99.90;;;;;;4968642;28;19982;-70
2023/01/31 14:34:53;;;;;;;;;;;6.50;99.90;;;;;;4975006;28;19933;-71
2023/01/31 14:37:26;;;;;;;;;;;6.50;99.90;;;;;;4965568;28;19985;-71
2023/01/31 14:40:03;;;;;;;;;;;6.60;99.90;;;;;;4960702;28;19926;-70
2023/01/31 14:42:49;;;;;;;;;;;6.50;99.90;;;;;;4959521;28;19958;-68
2023/01/31 14:45:23;;;;;;;;;;;6.50;99.90;;;;;;4978886;28;19932;-68
2023/01/31 14:47:55;;;;;;;;;;;6.50;99.90;;;;;;4966966;28;19926;-72
2023/01/31 14:50:42;;;;;;;;;;;6.60;99.90;;;;;;4967931;28;19926;-72
2023/01/31 14:53:19;;;;;;;;;;;6.60;99.90;;;;;;4962164;28;19926;-71
2023/01/31 14:56:00;;;;;;;;;;;6.60;99.90;;;;;;4982963;28;19927;-70
2023/01/31 14:58:27;;;;;;;;;;;6.60;99.90;;;;;;4959921;28;19930;-70
2023/01/31 15:00:55;;;;;;;;;;;6.60;99.90;;;;;;4958324;28;19955;-71
2023/01/31 15:03:23;;;;;;;;;;;6.60;99.90;;;;;;4953405;28;19926;-70
2023/01/31 15:05:51;;;;;;;;;;;6.60;99.90;;;;;;4965008;28;19926;-71
2023/01/31 15:08:38;;;;;;;;;;;6.70;99.90;;;;;;4967928;28;20033;-71
2023/01/31 15:11:06;;;;;;;;;;;6.60;99.90;;;;;;4963998;28;19926;-70
2023/01/31 15:13:40;;;;;;;;;;;6.60;99.90;;;;;;4962780;28;19952;-71
2023/01/31 15:16:09;;;;;;;;;;;6.60;99.90;;;;;;4945487;28;20305;-70
2023/01/31 15:18:36;;;;;;;;;;;6.60;99.90;;;;;;4977139;28;19933;-70
2023/01/31 15:21:05;;;;;;;;;;;6.50;99.90;;;;;;4949200;28;19949;-71
2023/01/31 15:23:32;;;;;;;;;;;6.50;99.90;;;;;;4959456;28;19933;-71
2023/01/31 15:26:02;;;;;;;;;;;6.50;99.90;;;;;;4961364;28;19926;-71
2023/01/31 15:28:30;;;;;;;;;;;6.50;99.90;;;;;;4956621;28;19930;-72
2023/01/31 15:30:58;;;;;;;;;;;6.50;99.90;;;;;;4961605;28;20291;-71
2023/01/31 15:33:27;;;;;;;;;;;6.50;99.90;;;;;;4961924;28;19926;-72
2023/01/31 15:35:58;;;;;;;;;;;6.50;99.90;;;;;;4961510;28;20401;-71
2023/01/31 15:38:28;;;;;;;;;;;6.50;99.90;;;;;;4966326;28;19926;-70
2023/01/31 15:41:16;;;;;;;;;;;6.60;99.90;;;;;;4964676;28;20362;-72
2023/01/31 15:43:44;;;;;;;;;;;6.60;99.90;;;;;;4943987;28;21330;-71
2023/01/31 15:46:20;;;;;;;;;;;6.60;99.90;;;;;;4955246;28;19978;-71
2023/01/31 15:48:47;;;;;;;;;;;6.70;99.90;;;;;;4955359;28;19927;-71
2023/01/31 15:51:14;;;;;;;;;;;6.70;99.90;;;;;;4948582;28;19927;-71
2023/01/31 15:53:41;;;;;;;;;;;6.80;99.90;;;;;;4956718;28;19930;-70
2023/01/31 15:56:13;;;;;;;;;;;6.70;99.90;;;;;;4961431;28;20113;-71
2023/01/31 15:58:45;;;;;;;;;;;6.70;99.90;;;;;;4969601;28;19930;-71
2023/01/31 16:01:13;;;;;;;;;;;6.70;99.90;;;;;;4954095;28;19926;-70
2023/01/31 16:03:42;;;;;;;;;;;6.70;99.90;;;;;;4949081;29;19930;-72
2023/01/31 16:06:18;;;;;;;;;;;6.60;99.90;;;;;;4950904;28;19963;-70
2023/01/31 16:08:51;;;;;;;;;;;6.60;99.90;;;;;;4973472;28;19933;-69
2023/01/31 16:11:17;;;;;;;;;;;6.60;99.90;;;;;;4951352;28;20456;-71
2023/01/31 16:13:46;;;;;;;;;;;6.60;99.90;;;;;;4963384;28;19931;-72
2023/01/31 16:16:13;;;;;;;;;;;6.60;99.90;;;;;;4963186;28;20009;-71
2023/01/31 16:18:41;;;;;;;;;;;6.60;99.90;;;;;;4953793;28;20394;-71
2023/01/31 16:21:14;;;;;;;;;;;6.70;99.90;;;;;;4969829;28;19931;-69
2023/01/31 16:23:40;;;;;;;;;;;6.60;99.90;;;;;;4954525;28;19994;-70
2023/01/31 16:26:09;;;;;;;;;;;6.60;99.90;;;;;;4954128;28;20349;-70
2023/01/31 16:28:37;;;;;;;;;;;6.60;99.90;;;;;;4962890;28;19926;-68
2023/01/31 16:31:07;;;;;;;;;;;6.70;99.90;;;;;;4950608;28;19930;-71
2023/01/31 16:33:34;;;;;;;;;;;6.70;99.90;;;;;;4981094;28;19933;-70
2023/01/31 16:36:03;;;;;;;;;;;6.60;99.90;;;;;;4969684;28;19927;-68
2023/01/31 16:38:30;;;;;;;;;;;6.70;99.90;;;;;;4969373;28;20413;-70
2023/01/31 16:40:59;;;;;;;;;;;6.70;99.90;;;;;;4959711;28;19926;-70
2023/01/31 16:43:27;;;;;;;;;;;6.70;99.90;;;;;;4950550;28;19931;-71
2023/01/31 16:45:54;;;;;;;;;;;;;;;;;;4960747;28;20020;-68
2023/01/31 16:48:24;;;;;;;;;;;7.10;99.90;;;;;;4956867;28;19926;-70
2023/01/31 16:50:52;;;;;;;;;;;6.70;99.90;;;;;;4959484;28;20398;-70
2023/01/31 16:53:26;;;;;;;;;;;6.70;99.90;;;;;;4958216;28;20459;-72
2023/01/31 16:56:12;;;;;;;;;;;6.70;99.90;;;;;;4971016;28;20024;-69
2023/01/31 16:58:39;;;;;;;;;;;;;;;;;;4970839;28;19980;-68
2023/01/31 17:01:10;;;;;;;;;;;6.30;99.90;;;;;;4957852;28;20266;-69
2023/01/31 17:03:39;;;;;;;;;;;6.70;99.90;;;;;;4956218;28;19942;-72
2023/01/31 17:06:07;;;;;;;;;;;6.70;99.90;;;;;;4963467;28;20288;-70
2023/01/31 17:08:36;;;;;;;;;;;6.70;99.90;;;;;;4962759;28;19930;-71
2023/01/31 17:11:03;;;;;;;;;;;6.80;99.90;;;;;;4959610;28;20405;-68
2023/01/31 17:13:30;;;;;;;;;;;6.80;99.90;;;;;;4966277;28;19926;-70
2023/01/31 17:15:57;;;;;;;;;;;6.80;99.90;;;;;;4974098;28;19949;-68
2023/01/31 17:18:24;;;;;;;;;;;6.80;99.90;;;;;;4959129;28;19932;-70
2023/01/31 17:20:52;;;;;;;;;;;6.80;99.90;;;;;;4970028;28;19934;-70
2023/01/31 17:23:19;;;;;;;;;;;6.80;99.90;;;;;;4976631;28;20475;-70
2023/01/31 17:25:46;;;;;;;;;;;6.80;99.90;;;;;;4975357;28;20029;-68
2023/01/31 17:28:13;;;;;;;;;;;6.80;99.90;;;;;;4961744;28;20365;-71
2023/01/31 17:30:41;;;;;;;;;;;6.80;99.90;;;;;;4978617;28;19942;-69
2023/01/31 17:33:10;;;;;;;;;;;6.90;99.90;;;;;;4958556;28;19927;-70
2023/01/31 17:35:37;;;;;;;;;;;6.90;99.90;;;;;;4984236;28;19933;-70
2023/01/31 17:38:06;;;;;;;;;;;6.80;99.90;;;;;;4961803;28;19954;-70
2023/01/31 17:40:33;;;;;;;;;;;6.80;99.90;;;;;;4973846;28;19927;-70
2023/01/31 17:43:01;;;;;;;;;;;6.90;99.90;;;;;;4966864;28;19930;-71
2023/01/31 17:45:27;;;;;;;;;;;6.90;99.90;;;;;;4960946;28;19934;-71
2023/01/31 17:47:54;;;;;;;;;;;6.90;99.90;;;;;;4967404;28;19927;-71
2023/01/31 17:50:22;;;;;;;;;;;6.90;99.90;;;;;;4954397;28;19926;-69
2023/01/31 17:52:49;;;;;;;;;;;7.00;99.90;;;;;;4952830;28;19927;-70
2023/01/31 17:55:18;;;;;;;;;;;6.90;99.90;;;;;;4952425;28;19927;-72
2023/01/31 17:57:46;;;;;;;;;;;6.90;99.90;;;;;;4963481;28;19954;-70
2023/01/31 18:00:13;;;;;;;;;;;7.00;99.90;;;;;;4952389;28;20398;-71
2023/01/31 18:02:41;;;;;;;;;;;6.90;99.90;;;;;;4958495;28;19973;-71
2023/01/31 18:05:08;;;;;;;;;;;6.90;99.90;;;;;;4962659;28;20029;-70
2023/01/31 18:07:35;;;;;;;;;;;6.90;99.90;;;;;;4958811;28;20353;-70
2023/01/31 18:10:02;;;;;;;;;;;7.00;99.90;;;;;;4960863;28;19926;-70
2023/01/31 18:12:32;;;;;;;;;;;7.00;99.90;;;;;;4954440;28;19927;-71
2023/01/31 18:14:59;;;;;;;;;;;7.00;99.90;;;;;;4959883;28;19932;-71
2023/01/31 18:17:25;;;;;;;;;;;7.00;99.90;;;;;;4963456;28;19926;-70
2023/01/31 18:19:52;;;;;;;;;;;7.00;99.90;;;;;;4955691;28;19926;-72
2023/01/31 18:22:19;;;;;;;;;;;6.90;99.90;;;;;;4955177;28;19930;-72
2023/01/31 18:24:46;;;;;;;;;;;6.80;99.90;;;;;;4955479;28;19933;-71
2023/01/31 18:27:12;;;;;;;;;;;6.70;99.90;;;;;;4956484;28;19926;-71
2023/01/31 18:29:41;;;;;;;;;;;6.70;99.90;;;;;;4953700;28;20398;-71
2023/01/31 18:32:08;;;;;;;;;;;6.60;99.90;;;;;;4969870;28;19965;-70
2023/01/31 18:34:36;;;;;;;;;;;6.60;99.90;;;;;;4965946;28;19926;-71
2023/01/31 18:37:05;;;;;;;;;;;6.60;99.90;;;;;;4980047;28;19926;-72
2023/01/31 18:39:32;;;;;;;;;;;6.60;99.90;;;;;;4965320;28;19942;-70
2023/01/31 18:41:59;;;;;;;;;;;6.50;99.90;;;;;;4958289;28;20345;-71
2023/01/31 18:44:26;;;;;;;;;;;6.50;99.90;;;;;;4962342;28;19926;-72
2023/01/31 18:46:54;;;;;;;;;;;6.50;99.90;;;;;;4966691;28;20370;-72
2023/01/31 18:49:21;;;;;;;;;;;6.50;99.90;;;;;;4957798;28;19937;-72